This is the latest recevied weather packets stored in our database for station/object OK1UOJ. If no packets are shown the sender has not sent any weather packets the latest 10 day(s).
| Time | Temp. | Humidity | Pressure | Rain* | Wind** | Luminosity | Snow |
|---|---|---|---|---|---|---|---|
| 1777448652 | 9.44° C | 64% | 1027.5 hPa | - | - | - | - |
| 1777448647 | 9.44° C | 64% | 1027.5 hPa | - | - | - | - |
| 1777448369 | 9.44° C | 57% | 1027.6 hPa | - | - | - | - |
| 1777448092 | 9.44° C | 55% | 1027.6 hPa | - | - | - | - |
| 1777446709 | 8.89° C | 62% | 1027.5 hPa | - | - | - | - |
| 1777446709 | 8.89° C | 62% | 1027.5 hPa | - | - | - | - |
| 1777446704 | 8.89° C | 62% | 1027.5 hPa | - | - | - | - |
| 1777446427 | 8.89° C | 67% | 1027.5 hPa | - | - | - | - |
| 1777446154 | 8.89° C | 63% | 1027.5 hPa | - | - | - | - |
| 1777446149 | 8.89° C | 63% | 1027.5 hPa | - | - | - | - |
| 1777445876 | 8.89° C | 60% | 1027.5 hPa | - | - | - | - |
| 1777445871 | 8.89° C | 60% | 1027.5 hPa | - | - | - | - |
| 1777445316 | 8.89° C | 70% | 1027.4 hPa | - | - | - | - |
| 1777445039 | 7.78° C | 73% | 1027.4 hPa | - | - | - | - |
| 1777444767 | 7.22° C | 81% | 1027.4 hPa | - | - | - | - |
| 1777444762 | 7.22° C | 81% | 1027.4 hPa | - | - | - | - |
| 1777444489 | 6.67° C | 88% | 1027.4 hPa | - | - | - | - |
| 1777444485 | 6.67° C | 88% | 1027.4 hPa | - | - | - | - |
| 1777444212 | 6.11° C | 92% | 1027.3 hPa | - | - | - | - |
| 1777444207 | 6.11° C | 92% | 1027.3 hPa | - | - | - | - |
| 1777443935 | 6.11° C | 10% | - | - | - | - | - |
| 1777443930 | 6.11° C | 10% | - | - | - | - | - |
| 1777443658 | 5.56° C | 10% | - | - | - | - | - |
| 1777443653 | 5.56° C | 10% | - | - | - | - | - |
| 1777443376 | 5.56° C | 10% | - | - | - | - | - |
* Rain since midnight (hover to see other rain measurements)
** Current wind speed in m/s (hover to see current wind gust speed)